Time;durP1;ratioP1;P1;durP2;ratioP2;P2;SDS_P1;SDS_P2;PMS_P1;PMS_P2;Temp;Humidity;BMP_temperature;BMP_pressure;BME280_temperature;BME280_humidity;BME280_pressure;Samples;Min_cycle;Max_cycle;Signal;HPM_P1;HPM_P2
2022/01/15 00:06:20;;;;;;;;;;;1.10;86.90;;;;;;5152162;27;19912;-86
2022/01/15 00:08:45;;;;;;;;;;;1.00;86.40;;;;;;5146665;27;19912;-86
2022/01/15 00:13:31;;;;;;;;;;;0.90;87.40;;;;;;5110965;27;19912;-86
2022/01/15 00:16:28;;;;;;;;;;;1.00;87.50;;;;;;5111220;28;19947;-85
2022/01/15 00:19:03;;;;;;;;;;;0.90;87.50;;;;;;5110615;28;19915;-86
2022/01/15 00:21:29;;;;;;;;;;;0.90;87.70;;;;;;5109487;28;20365;-86
2022/01/15 00:23:54;;;;;;;;;;;0.90;87.80;;;;;;5109438;28;19916;-86
2022/01/15 00:26:20;;;;;;;;;;;0.90;87.70;;;;;;5110946;28;19916;-86
2022/01/15 00:28:45;;;;;;;;;;;0.80;87.20;;;;;;5110568;28;20401;-87
2022/01/15 00:31:11;;;;;;;;;;;0.80;87.50;;;;;;5110547;28;19912;-87
2022/01/15 00:33:36;;;;;;;;;;;0.90;87.40;;;;;;5110605;28;19908;-87
2022/01/15 00:36:02;;;;;;;;;;;1.00;87.30;;;;;;5109220;28;19908;-87
2022/01/15 00:38:27;;;;;;;;;;;1.00;86.90;;;;;;5110502;28;20014;-87
2022/01/15 00:40:53;;;;;;;;;;;1.10;86.20;;;;;;5110452;28;20061;-87
2022/01/15 00:43:19;;;;;;;;;;;1.10;86.10;;;;;;5110402;28;19908;-86
2022/01/15 00:45:45;;;;;;;;;;;1.10;86.00;;;;;;5110382;28;19943;-86
2022/01/15 00:48:10;;;;;;;;;;;1.10;85.90;;;;;;5110271;28;19908;-87
2022/01/15 00:50:36;;;;;;;;;;;1.10;85.80;;;;;;5110288;28;19908;-87
2022/01/15 00:53:01;;;;;;;;;;;1.20;85.70;;;;;;5110127;28;19916;-87
2022/01/15 00:55:27;;;;;;;;;;;1.30;85.30;;;;;;5110248;28;20004;-87
2022/01/15 00:57:53;;;;;;;;;;;1.30;84.70;;;;;;5110041;28;20288;-87
2022/01/15 01:00:19;;;;;;;;;;;1.40;84.40;;;;;;5110120;28;19912;-87
2022/01/15 01:02:45;;;;;;;;;;;1.40;84.40;;;;;;5110039;28;19908;-86
2022/01/15 01:05:11;;;;;;;;;;;1.40;83.70;;;;;;5109970;28;19908;-87
2022/01/15 01:07:37;;;;;;;;;;;1.30;83.90;;;;;;5109956;28;20297;-87
2022/01/15 01:12:57;;;;;;;;;;;1.40;83.50;;;;;;5109578;28;19927;-87
2022/01/15 01:23:14;;;;;;;;;;;1.10;83.30;;;;;;5105444;28;19908;-87
2022/01/15 01:25:44;;;;;;;;;;;1.00;83.60;;;;;;5096045;28;19967;-87
2022/01/15 01:28:25;;;;;;;;;;;0.90;84.10;;;;;;5096081;28;19908;-87
2022/01/15 01:30:58;;;;;;;;;;;0.90;84.30;;;;;;5095963;28;19931;-87
2022/01/15 01:38:36;;;;;;;;;;;0.70;85.00;;;;;;5095814;28;19935;-87
2022/01/15 01:41:01;;;;;;;;;;;0.70;85.20;;;;;;5095756;28;19920;-87
2022/01/15 01:48:38;;;;;;;;;;;0.50;87.00;;;;;;5095657;28;19974;-87
2022/01/15 01:51:06;;;;;;;;;;;0.50;88.20;;;;;;5095493;28;20297;-87
2022/01/15 01:53:32;;;;;;;;;;;0.50;88.60;;;;;;5095572;28;19916;-87
2022/01/15 01:55:57;;;;;;;;;;;0.40;89.10;;;;;;5095431;28;19931;-87
2022/01/15 01:58:23;;;;;;;;;;;0.40;89.70;;;;;;5095408;28;20002;-87
2022/01/15 02:00:49;;;;;;;;;;;0.40;90.20;;;;;;5095350;28;19948;-87
2022/01/15 02:03:14;;;;;;;;;;;0.40;90.30;;;;;;5095282;28;19909;-87
2022/01/15 02:05:40;;;;;;;;;;;0.40;90.00;;;;;;5095279;28;19908;-86
2022/01/15 02:08:05;;;;;;;;;;;0.40;89.80;;;;;;5095219;28;19923;-87
2022/01/15 02:10:32;;;;;;;;;;;0.40;89.80;;;;;;5095055;28;20163;-87
2022/01/15 02:13:00;;;;;;;;;;;0.30;89.70;;;;;;5094885;28;19970;-87
2022/01/15 02:15:27;;;;;;;;;;;0.30;89.80;;;;;;5093773;28;19908;-86
2022/01/15 02:17:53;;;;;;;;;;;0.30;90.00;;;;;;5095036;28;20353;-86
2022/01/15 02:25:41;;;;;;;;;;;0.10;89.00;;;;;;5095195;28;19970;-86
2022/01/15 02:28:06;;;;;;;;;;;0.00;89.40;;;;;;5094669;28;19908;-87
2022/01/15 02:30:32;;;;;;;;;;;0.00;89.50;;;;;;5094766;28;19946;-86
2022/01/15 02:32:57;;;;;;;;;;;0.10;89.50;;;;;;5094600;28;20431;-87
2022/01/15 02:35:23;;;;;;;;;;;0.10;89.10;;;;;;5093637;28;20262;-86
2022/01/15 02:37:49;;;;;;;;;;;0.00;88.60;;;;;;5094687;28;20278;-86
2022/01/15 02:40:15;;;;;;;;;;;0.00;88.70;;;;;;5094520;28;20284;-86
2022/01/15 02:42:40;;;;;;;;;;;0.00;88.90;;;;;;5094491;28;19908;-86
2022/01/15 02:45:08;;;;;;;;;;;0.00;89.00;;;;;;5094493;28;19948;-86
2022/01/15 02:50:18;;;;;;;;;;;0.10;89.30;;;;;;5094721;28;19941;-86
2022/01/15 02:52:44;;;;;;;;;;;0.10;89.50;;;;;;5094208;28;19912;-86
2022/01/15 02:55:10;;;;;;;;;;;0.20;89.50;;;;;;5094276;28;19952;-86
2022/01/15 02:57:35;;;;;;;;;;;0.20;89.60;;;;;;5094274;28;19946;-86
2022/01/15 03:00:01;;;;;;;;;;;0.30;89.50;;;;;;5094241;28;19909;-86
2022/01/15 03:02:31;;;;;;;;;;;0.30;89.20;;;;;;5094696;28;19932;-86
2022/01/15 03:04:57;;;;;;;;;;;0.40;88.50;;;;;;5094108;28;19908;-86
2022/01/15 03:07:22;;;;;;;;;;;0.40;88.20;;;;;;5094061;28;19957;-86
2022/01/15 03:09:48;;;;;;;;;;;0.30;87.70;;;;;;5094011;28;20061;-87
2022/01/15 03:12:13;;;;;;;;;;;0.20;87.50;;;;;;5093886;28;20019;-87
2022/01/15 03:14:39;;;;;;;;;;;0.20;87.50;;;;;;5093943;28;19908;-87
2022/01/15 03:17:04;;;;;;;;;;;0.20;87.50;;;;;;5093879;28;19995;-87
2022/01/15 03:19:30;;;;;;;;;;;0.30;87.50;;;;;;5093856;28;19915;-87
2022/01/15 03:21:56;;;;;;;;;;;0.20;87.60;;;;;;5093830;28;19908;-86
2022/01/15 03:24:21;;;;;;;;;;;0.10;87.70;;;;;;5093770;28;20458;-87
2022/01/15 03:26:47;;;;;;;;;;;0.10;87.90;;;;;;5093720;28;19908;-87
2022/01/15 03:29:12;;;;;;;;;;;0.20;88.10;;;;;;5093625;28;19908;-87
2022/01/15 03:31:38;;;;;;;;;;;0.20;88.10;;;;;;5093562;28;19994;-87
2022/01/15 03:34:03;;;;;;;;;;;0.30;87.80;;;;;;5093551;28;20272;-86
2022/01/15 03:36:29;;;;;;;;;;;0.20;87.30;;;;;;5093544;28;20448;-86
2022/01/15 03:38:54;;;;;;;;;;;0.10;86.70;;;;;;5093494;28;20281;-87
2022/01/15 03:41:20;;;;;;;;;;;0.00;86.90;;;;;;5093421;28;19908;-87
2022/01/15 03:43:46;;;;;;;;;;;0.00;87.00;;;;;;5093680;28;19991;-87
2022/01/15 03:46:12;;;;;;;;;;;0.00;87.00;;;;;;5093155;28;19942;-87
2022/01/15 03:48:37;;;;;;;;;;;0.00;87.80;;;;;;5093409;28;19951;-88
2022/01/15 03:51:03;;;;;;;;;;;0.00;88.40;;;;;;5093376;28;19908;-87
2022/01/15 03:53:29;;;;;;;;;;;0.00;88.60;;;;;;5093193;28;19912;-87
2022/01/15 03:55:54;;;;;;;;;;;0.10;88.90;;;;;;5093247;28;20278;-88
2022/01/15 03:58:20;;;;;;;;;;;0.10;88.80;;;;;;5093275;28;19908;-87
2022/01/15 04:00:45;;;;;;;;;;;0.10;88.70;;;;;;5093200;28;20006;-88
2022/01/15 04:03:12;;;;;;;;;;;0.20;88.50;;;;;;5093137;28;19996;-88
2022/01/15 04:05:38;;;;;;;;;;;0.20;88.50;;;;;;5093214;28;19908;-87
2022/01/15 04:08:05;;;;;;;;;;;0.20;88.50;;;;;;5093136;28;19915;-87
2022/01/15 04:10:30;;;;;;;;;;;0.10;88.10;;;;;;5093040;28;19947;-87
2022/01/15 04:12:56;;;;;;;;;;;0.00;88.20;;;;;;5092811;28;19967;-87
2022/01/15 04:15:21;;;;;;;;;;;0.00;88.50;;;;;;5093046;28;19965;-88
2022/01/15 04:17:49;;;;;;;;;;;0.00;88.50;;;;;;5093036;28;20307;-87
2022/01/15 04:20:16;;;;;;;;;;;0.10;88.60;;;;;;5092032;28;20354;-87
2022/01/15 04:22:42;;;;;;;;;;;0.10;88.90;;;;;;5093057;28;19955;-88
2022/01/15 04:25:08;;;;;;;;;;;0.00;88.60;;;;;;5092979;28;20285;-88
2022/01/15 04:27:33;;;;;;;;;;;0.00;88.20;;;;;;5092796;28;19908;-87
2022/01/15 04:30:03;;;;;;;;;;;0.00;88.10;;;;;;5093192;28;20250;-87
2022/01/15 04:32:28;;;;;;;;;;;0.00;87.80;;;;;;5093162;28;20011;-87
2022/01/15 04:34:54;;;;;;;;;;;-3276.60;87.50;;;;;;5092911;28;19944;-87
2022/01/15 04:37:22;;;;;;;;;;;-3276.50;87.80;;;;;;5092834;28;20243;-87
2022/01/15 04:39:48;;;;;;;;;;;-3276.40;88.40;;;;;;5093094;28;19957;-87
2022/01/15 04:42:15;;;;;;;;;;;-3276.40;89.20;;;;;;5092797;28;19999;-87
2022/01/15 04:44:42;;;;;;;;;;;-3276.50;89.40;;;;;;5092731;28;20313;-87
2022/01/15 04:47:07;;;;;;;;;;;-3276.50;89.20;;;;;;5093032;28;19909;-88
2022/01/15 04:49:33;;;;;;;;;;;-3276.50;89.10;;;;;;5092749;28;20002;-87
2022/01/15 04:51:59;;;;;;;;;;;-3276.50;88.90;;;;;;5092624;28;20293;-87
2022/01/15 04:54:24;;;;;;;;;;;-3276.60;88.70;;;;;;5092928;28;19916;-87
2022/01/15 04:56:50;;;;;;;;;;;-3276.50;88.30;;;;;;5092661;28;19911;-87
2022/01/15 04:59:15;;;;;;;;;;;-3276.50;88.00;;;;;;5094968;28;19908;-87
2022/01/15 05:01:41;;;;;;;;;;;-3276.40;87.90;;;;;;5096449;28;19908;-87
2022/01/15 05:04:06;;;;;;;;;;;-3276.40;88.20;;;;;;5096450;28;19908;-87
2022/01/15 05:06:32;;;;;;;;;;;-3276.50;88.10;;;;;;5096337;28;19913;-87
2022/01/15 05:09:05;;;;;;;;;;;-3276.50;87.90;;;;;;5096511;28;20053;-87
2022/01/15 05:11:43;;;;;;;;;;;-3276.50;87.60;;;;;;5096366;28;19985;-87
2022/01/15 05:14:09;;;;;;;;;;;-3276.40;87.40;;;;;;5096235;28;20303;-87
2022/01/15 05:16:36;;;;;;;;;;;-3276.40;87.30;;;;;;5096177;28;19916;-87
2022/01/15 05:19:01;;;;;;;;;;;-3276.40;87.50;;;;;;5096374;28;19909;-87
2022/01/15 05:21:27;;;;;;;;;;;-3276.40;87.60;;;;;;5096118;28;19908;-87
2022/01/15 05:23:52;;;;;;;;;;;-3276.40;87.80;;;;;;5096314;28;19915;-87
2022/01/15 05:26:18;;;;;;;;;;;-3276.30;87.80;;;;;;5096423;28;20277;-87
2022/01/15 05:28:43;;;;;;;;;;;-3276.30;87.90;;;;;;5095891;28;20280;-87
2022/01/15 05:31:09;;;;;;;;;;;-3276.20;87.90;;;;;;5095917;28;20346;-87
2022/01/15 05:33:34;;;;;;;;;;;-3276.20;88.10;;;;;;5095823;28;20316;-87
2022/01/15 05:36:00;;;;;;;;;;;-3276.30;88.10;;;;;;5095809;28;20415;-87
2022/01/15 05:38:26;;;;;;;;;;;-3276.30;87.60;;;;;;5095763;28;20365;-87
2022/01/15 05:40:52;;;;;;;;;;;-3276.20;87.70;;;;;;5095786;28;19912;-87
2022/01/15 05:43:17;;;;;;;;;;;-3276.20;87.80;;;;;;5095658;28;19916;-87
2022/01/15 05:45:43;;;;;;;;;;;-3276.10;87.70;;;;;;5095572;28;20445;-87
2022/01/15 05:48:08;;;;;;;;;;;-3276.10;87.70;;;;;;5095619;28;19912;-88
2022/01/15 05:50:34;;;;;;;;;;;-3276.00;87.70;;;;;;5095476;28;19947;-88
2022/01/15 05:53:00;;;;;;;;;;;-3275.90;87.70;;;;;;5095429;28;19912;-88
2022/01/15 05:55:25;;;;;;;;;;;-3275.90;88.00;;;;;;5095478;28;19908;-87
2022/01/15 05:57:51;;;;;;;;;;;-3275.80;88.20;;;;;;5095719;28;20103;-87
2022/01/15 06:00:16;;;;;;;;;;;-3275.80;88.50;;;;;;5094422;28;20001;-87
2022/01/15 06:02:42;;;;;;;;;;;-3275.80;88.90;;;;;;5080994;28;19917;-88
2022/01/15 06:05:08;;;;;;;;;;;-3275.90;89.60;;;;;;5081597;28;20353;-88
2022/01/15 06:07:34;;;;;;;;;;;-3275.90;90.20;;;;;;5081192;28;19908;-87
2022/01/15 06:09:59;;;;;;;;;;;-3276.00;90.60;;;;;;5074757;28;19915;-87
2022/01/15 06:12:30;;;;;;;;;;;-3276.20;90.80;;;;;;5075685;28;20317;-87
2022/01/15 06:14:56;;;;;;;;;;;-3276.40;90.80;;;;;;5085280;28;19999;-88
2022/01/15 06:17:22;;;;;;;;;;;-3276.40;90.40;;;;;;5094956;28;19912;-88
2022/01/15 06:19:47;;;;;;;;;;;-3276.40;89.60;;;;;;5094954;28;19909;-87
2022/01/15 06:22:13;;;;;;;;;;;-3276.30;89.30;;;;;;5094953;28;19918;-88
2022/01/15 06:24:38;;;;;;;;;;;-3276.30;89.80;;;;;;5095158;28;20357;-88
2022/01/15 06:27:04;;;;;;;;;;;-3276.30;89.70;;;;;;5094155;28;20357;-88
2022/01/15 06:29:29;;;;;;;;;;;-3276.10;89.80;;;;;;5093548;28;20384;-88
2022/01/15 06:31:55;;;;;;;;;;;-3276.10;90.20;;;;;;5092905;28;20362;-88
2022/01/15 06:34:21;;;;;;;;;;;-3276.20;90.40;;;;;;5092982;28;19966;-88
2022/01/15 06:36:46;;;;;;;;;;;-3276.20;90.90;;;;;;5092867;28;19908;-88
2022/01/15 06:39:12;;;;;;;;;;;-3276.20;90.90;;;;;;5094918;28;20361;-88
2022/01/15 06:41:37;;;;;;;;;;;-3276.30;90.80;;;;;;5094547;28;19931;-88
2022/01/15 06:44:03;;;;;;;;;;;-3276.30;91.10;;;;;;5088849;28;20065;-87
2022/01/15 06:46:29;;;;;;;;;;;-3276.20;90.90;;;;;;5076259;28;20319;-88
2022/01/15 06:48:54;;;;;;;;;;;-3276.20;91.00;;;;;;5075225;28;19909;-88
2022/01/15 06:51:20;;;;;;;;;;;-3276.20;90.90;;;;;;5076181;28;19943;-88
2022/01/15 06:53:45;;;;;;;;;;;-3276.10;90.80;;;;;;5074055;28;20324;-88
2022/01/15 06:56:11;;;;;;;;;;;-3276.10;91.00;;;;;;5073858;28;20183;-88
2022/01/15 06:58:36;;;;;;;;;;;-3276.10;91.30;;;;;;5076163;28;19909;-88
2022/01/15 07:01:03;;;;;;;;;;;-3276.10;91.30;;;;;;5090230;28;20299;-88
2022/01/15 07:03:28;;;;;;;;;;;-3276.10;91.70;;;;;;5088766;28;19908;-88
2022/01/15 07:05:54;;;;;;;;;;;-3276.10;91.70;;;;;;5073576;28;19919;-89
2022/01/15 07:08:19;;;;;;;;;;;-3276.00;91.60;;;;;;5074015;28;19909;-89
2022/01/15 07:10:45;;;;;;;;;;;-3276.00;91.40;;;;;;5076532;28;20442;-89
2022/01/15 07:13:11;;;;;;;;;;;-3276.00;91.30;;;;;;5081098;28;19968;-89
2022/01/15 07:15:36;;;;;;;;;;;-3276.10;91.40;;;;;;5081726;28;19919;-88
2022/01/15 07:18:02;;;;;;;;;;;-3276.10;91.50;;;;;;5092114;28;20393;-87
2022/01/15 07:20:27;;;;;;;;;;;-3276.30;91.80;;;;;;5093800;28;20002;-87
2022/01/15 07:22:53;;;;;;;;;;;-3276.50;91.60;;;;;;5085346;28;20278;-87
2022/01/15 07:25:19;;;;;;;;;;;-3276.60;90.90;;;;;;5086942;28;20381;-87
2022/01/15 07:27:45;;;;;;;;;;;-3276.50;90.20;;;;;;5093323;28;19908;-87
2022/01/15 07:30:12;;;;;;;;;;;-3276.50;90.30;;;;;;5082225;28;19951;-87
2022/01/15 07:32:38;;;;;;;;;;;-3276.40;90.30;;;;;;5088981;28;19916;-87
2022/01/15 07:35:04;;;;;;;;;;;-3276.40;90.40;;;;;;5090102;28;19920;-87
2022/01/15 07:37:30;;;;;;;;;;;-3276.30;90.60;;;;;;5090346;28;19965;-87
2022/01/15 07:39:56;;;;;;;;;;;-3276.40;90.60;;;;;;5093527;28;19938;-87
2022/01/15 07:42:21;;;;;;;;;;;-3276.50;90.40;;;;;;5093574;28;19908;-87
2022/01/15 07:44:47;;;;;;;;;;;-3276.60;90.00;;;;;;5080424;28;19957;-87
2022/01/15 07:47:12;;;;;;;;;;;-3276.70;89.80;;;;;;5092023;28;19912;-88
2022/01/15 07:49:38;;;;;;;;;;;0.00;89.20;;;;;;5080133;28;20328;-88
2022/01/15 07:52:04;;;;;;;;;;;0.10;89.00;;;;;;5073046;28;19919;-88
2022/01/15 07:54:29;;;;;;;;;;;0.20;88.80;;;;;;5080540;28;20002;-88
2022/01/15 07:56:55;;;;;;;;;;;0.30;88.70;;;;;;5091850;28;19912;-88
2022/01/15 07:59:21;;;;;;;;;;;0.40;88.90;;;;;;5093523;28;20277;-88
2022/01/15 08:01:47;;;;;;;;;;;0.50;89.10;;;;;;5093266;28;19939;-88
2022/01/15 08:04:12;;;;;;;;;;;0.50;89.60;;;;;;5080308;28;19964;-88
2022/01/15 08:06:40;;;;;;;;;;;0.60;90.10;;;;;;5072972;28;19913;-88
2022/01/15 08:09:05;;;;;;;;;;;0.70;90.40;;;;;;5072893;28;19962;-88
2022/01/15 08:11:31;;;;;;;;;;;0.80;90.00;;;;;;5086590;22;19928;-88
2022/01/15 08:13:56;;;;;;;;;;;0.90;89.10;;;;;;5103324;28;19980;-88
2022/01/15 08:16:22;;;;;;;;;;;1.00;86.90;;;;;;5111685;28;19923;-88
2022/01/15 08:18:48;;;;;;;;;;;1.20;86.50;;;;;;5113337;28;19914;-88
2022/01/15 08:21:13;;;;;;;;;;;1.30;85.90;;;;;;5113349;28;20002;-88
2022/01/15 08:23:39;;;;;;;;;;;1.40;85.20;;;;;;5111534;28;19964;-88
2022/01/15 08:26:05;;;;;;;;;;;1.60;84.20;;;;;;5113614;28;20007;-88
2022/01/15 08:28:30;;;;;;;;;;;1.70;84.50;;;;;;5111506;28;20266;-89
2022/01/15 08:30:56;;;;;;;;;;;1.80;84.80;;;;;;5108762;28;19908;-88
2022/01/15 08:33:21;;;;;;;;;;;1.80;85.00;;;;;;5112315;28;19922;-88
2022/01/15 08:35:47;;;;;;;;;;;1.90;85.10;;;;;;5117472;28;20354;-88
2022/01/15 08:38:13;;;;;;;;;;;2.00;84.90;;;;;;5115880;28;19916;-88
2022/01/15 08:40:38;;;;;;;;;;;2.10;84.30;;;;;;5113858;28;20277;-88
2022/01/15 08:43:04;;;;;;;;;;;2.20;83.00;;;;;;5110400;28;19912;-88
2022/01/15 08:45:30;;;;;;;;;;;2.40;84.40;;;;;;5105696;28;20308;-89
2022/01/15 08:47:56;;;;;;;;;;;2.50;85.40;;;;;;5114428;28;19937;-88
2022/01/15 08:50:22;;;;;;;;;;;2.50;85.90;;;;;;5096507;28;20432;-89
2022/01/15 08:52:48;;;;;;;;;;;2.70;86.40;;;;;;5096870;28;19932;-88
2022/01/15 08:55:14;;;;;;;;;;;2.80;86.00;;;;;;5104249;28;19912;-88
2022/01/15 08:57:39;;;;;;;;;;;3.00;85.30;;;;;;5098910;28;19966;-88
2022/01/15 09:00:13;;;;;;;;;;;3.10;84.80;;;;;;5095740;28;19908;-88
2022/01/15 09:02:39;;;;;;;;;;;3.30;85.10;;;;;;5099774;28;19912;-88
2022/01/15 09:05:05;;;;;;;;;;;3.50;85.10;;;;;;5114655;28;20481;-88
2022/01/15 09:07:30;;;;;;;;;;;3.80;84.40;;;;;;5115442;28;19957;-88
2022/01/15 09:09:56;;;;;;;;;;;3.90;83.90;;;;;;5095527;28;20369;-88
2022/01/15 09:12:22;;;;;;;;;;;4.00;82.70;;;;;;5085991;28;19920;-88
2022/01/15 09:15:43;;;;;;;;;;;4.10;83.30;;;;;;5131278;27;19918;-90
2022/01/15 09:18:09;;;;;;;;;;;4.40;84.00;;;;;;5119354;27;20574;-90
2022/01/15 09:20:34;;;;;;;;;;;4.50;83.60;;;;;;5131005;27;19908;-90
2022/01/15 09:23:00;;;;;;;;;;;4.70;83.30;;;;;;5126733;27;19912;-90
2022/01/15 09:25:27;;;;;;;;;;;4.90;83.10;;;;;;5126676;27;19907;-90
2022/01/15 09:31:53;;;;;;;;;;;5.20;81.50;;;;;;5158977;27;19925;-90
2022/01/15 09:34:19;;;;;;;;;;;5.30;81.70;;;;;;5145364;27;19908;-90
2022/01/15 09:36:44;;;;;;;;;;;5.40;80.80;;;;;;5166306;27;20002;-90
2022/01/15 09:39:10;;;;;;;;;;;5.40;80.70;;;;;;5159729;27;20040;-90
2022/01/15 09:41:38;;;;;;;;;;;5.60;80.00;;;;;;5161833;27;19918;-90
2022/01/15 10:12:31;;;;;;;;;;;5.70;79.10;;;;;;5110966;27;19912;-87
2022/01/15 10:34:46;;;;;;;;;;;7.00;73.90;;;;;;5110960;27;19918;-87
2022/01/15 10:37:13;;;;;;;;;;;8.20;69.10;;;;;;5110980;28;19928;-87
2022/01/15 11:00:59;;;;;;;;;;;8.10;67.80;;;;;;5110879;27;19935;-87
2022/01/15 11:03:34;;;;;;;;;;;8.90;65.60;;;;;;5110947;28;20436;-87
2022/01/15 11:06:00;;;;;;;;;;;9.00;65.00;;;;;;5110876;28;20275;-88
2022/01/15 11:08:26;;;;;;;;;;;9.30;64.80;;;;;;5110775;28;19935;-87
2022/01/15 11:12:52;;;;;;;;;;;9.50;65.00;;;;;;5110978;27;19916;-86
2022/01/15 11:15:17;;;;;;;;;;;10.00;63.90;;;;;;5110914;28;19919;-87
2022/01/15 11:18:23;;;;;;;;;;;10.20;63.70;;;;;;5101584;27;2034788;-87
2022/01/15 11:20:51;;;;;;;;;;;10.40;62.20;;;;;;5172965;27;19960;-88
2022/01/15 11:23:18;;;;;;;;;;;10.40;61.60;;;;;;5173151;27;19974;-87
2022/01/15 11:25:44;;;;;;;;;;;10.50;61.00;;;;;;5172854;27;20253;-88
2022/01/15 11:28:10;;;;;;;;;;;10.60;60.60;;;;;;5172694;27;20395;-88
2022/01/15 11:30:36;;;;;;;;;;;10.70;60.70;;;;;;5172795;27;19907;-88
2022/01/15 11:33:02;;;;;;;;;;;10.80;60.80;;;;;;5172692;27;19993;-88
2022/01/15 11:35:46;;;;;;;;;;;11.00;61.20;;;;;;5172650;27;19993;-88
2022/01/15 11:38:31;;;;;;;;;;;11.20;60.90;;;;;;5172777;27;19915;-88
2022/01/15 11:40:57;;;;;;;;;;;11.50;60.00;;;;;;5172430;27;19929;-88
2022/01/15 11:43:25;;;;;;;;;;;11.90;59.30;;;;;;5172467;27;20338;-88
2022/01/15 11:45:55;;;;;;;;;;;12.20;58.80;;;;;;5172365;27;19913;-89
2022/01/15 11:48:22;;;;;;;;;;;12.50;58.30;;;;;;5172462;27;20001;-88
2022/01/15 11:51:08;;;;;;;;;;;12.80;57.40;;;;;;5172413;27;19911;-88
2022/01/15 11:53:49;;;;;;;;;;;13.10;55.30;;;;;;5153882;27;20331;-88
2022/01/15 11:56:17;;;;;;;;;;;13.30;52.10;;;;;;5172220;27;20348;-88
2022/01/15 11:58:43;;;;;;;;;;;13.60;51.00;;;;;;5172437;27;19907;-88
2022/01/15 12:01:28;;;;;;;;;;;14.10;50.00;;;;;;5153468;27;20434;-88
2022/01/15 12:04:14;;;;;;;;;;;14.60;47.80;;;;;;5171990;27;20276;-88
2022/01/15 12:06:58;;;;;;;;;;;15.30;47.30;;;;;;5171856;27;19936;-88
2022/01/15 12:09:43;;;;;;;;;;;16.10;45.50;;;;;;5161086;27;19907;-88
2022/01/15 12:12:19;;;;;;;;;;;17.00;43.80;;;;;;5150466;27;19914;-88
2022/01/15 12:14:48;;;;;;;;;;;17.40;41.20;;;;;;5151306;27;19959;-88
2022/01/15 12:17:25;;;;;;;;;;;17.80;40.60;;;;;;5150725;27;20369;-88
2022/01/15 12:19:51;;;;;;;;;;;18.10;39.20;;;;;;5150943;27;19907;-88
2022/01/15 12:22:36;;;;;;;;;;;18.50;38.70;;;;;;5150926;27;19955;-88
2022/01/15 12:25:08;;;;;;;;;;;18.90;37.80;;;;;;5150812;27;19907;-88
2022/01/15 12:27:34;;;;;;;;;;;19.10;36.60;;;;;;5148989;27;19973;-88
2022/01/15 12:30:02;;;;;;;;;;;19.00;36.40;;;;;;5136693;27;19908;-88
2022/01/15 12:34:29;;;;;;;;;;;18.70;36.50;;;;;;5070416;28;19920;-88
2022/01/15 12:36:55;;;;;;;;;;;18.40;37.80;;;;;;5070384;28;19913;-88
2022/01/15 12:41:18;;;;;;;;;;;18.30;37.00;;;;;;5111006;27;19912;-88
2022/01/15 12:47:08;;;;;;;;;;;18.00;38.50;;;;;;5110957;27;19912;-90
2022/01/15 12:49:45;;;;;;;;;;;18.30;38.50;;;;;;5110966;28;19995;-89
2022/01/15 12:55:08;;;;;;;;;;;18.60;38.00;;;;;;5110966;27;19919;-89
2022/01/15 12:57:43;;;;;;;;;;;18.90;37.20;;;;;;5110942;28;19991;-89
2022/01/15 13:00:08;;;;;;;;;;;18.90;37.20;;;;;;5110804;28;20377;-89
2022/01/15 13:02:34;;;;;;;;;;;19.10;36.80;;;;;;5111064;28;19915;-89
2022/01/15 13:04:59;;;;;;;;;;;19.20;36.90;;;;;;5110773;28;20323;-89
2022/01/15 13:07:25;;;;;;;;;;;19.30;36.40;;;;;;5110729;28;19917;-89
2022/01/15 13:09:51;;;;;;;;;;;19.50;36.40;;;;;;5110570;28;19915;-89
2022/01/15 13:12:16;;;;;;;;;;;19.40;36.20;;;;;;5110593;28;19954;-90
2022/01/15 13:14:42;;;;;;;;;;;19.60;36.00;;;;;;5110447;28;19912;-89
2022/01/15 13:17:21;;;;;;;;;;;19.70;36.20;;;;;;5110746;28;19908;-89
2022/01/15 13:19:47;;;;;;;;;;;19.80;35.90;;;;;;5110425;28;19908;-90
2022/01/15 13:22:12;;;;;;;;;;;20.10;35.40;;;;;;5110392;28;19931;-89
2022/01/15 13:24:38;;;;;;;;;;;20.30;34.90;;;;;;5110386;28;19908;-90
2022/01/15 13:27:04;;;;;;;;;;;20.20;34.70;;;;;;5110283;28;19991;-90
2022/01/15 13:29:39;;;;;;;;;;;20.30;34.60;;;;;;5110189;28;19912;-90
2022/01/15 13:32:07;;;;;;;;;;;20.30;34.80;;;;;;5110219;28;19961;-90
2022/01/15 13:34:34;;;;;;;;;;;20.50;34.70;;;;;;5110079;28;19961;-90
2022/01/15 13:37:11;;;;;;;;;;;20.50;34.40;;;;;;5110195;28;19919;-90
2022/01/15 13:39:37;;;;;;;;;;;20.50;34.10;;;;;;5110102;28;19970;-90
2022/01/15 13:42:03;;;;;;;;;;;20.60;33.90;;;;;;5110061;28;19908;-90
2022/01/15 13:44:35;;;;;;;;;;;20.50;34.10;;;;;;5110055;28;19937;-90
2022/01/15 13:47:08;;;;;;;;;;;20.40;34.10;;;;;;5109996;28;19962;-90
2022/01/15 13:53:05;;;;;;;;;;;20.40;35.30;;;;;;5109871;28;19909;-90
2022/01/15 13:55:16;;;;;;;;;;;21.00;33.60;;;;;;5110138;28;19972;-90
2022/01/15 13:57:41;;;;;;;;;;;21.30;34.20;;;;;;5109747;28;20361;-90
2022/01/15 14:00:10;;;;;;;;;;;22.10;33.00;;;;;;5109683;28;19914;-90
2022/01/15 14:02:35;;;;;;;;;;;22.80;31.50;;;;;;5109622;28;19930;-90
2022/01/15 14:05:21;;;;;;;;;;;23.30;30.30;;;;;;5104417;28;20417;-90
2022/01/15 14:07:47;;;;;;;;;;;23.50;29.70;;;;;;5096046;28;20370;-90
2022/01/15 14:10:14;;;;;;;;;;;23.40;29.20;;;;;;5095890;28;20170;-90
2022/01/15 14:12:39;;;;;;;;;;;22.90;30.00;;;;;;5095921;28;19909;-90
2022/01/15 14:15:13;;;;;;;;;;;23.00;30.60;;;;;;5096102;28;20003;-90
2022/01/15 14:17:42;;;;;;;;;;;23.40;29.40;;;;;;5095834;28;19914;-90
2022/01/15 14:22:41;;;;;;;;;;;22.70;30.20;;;;;;5096337;28;20395;-90
2022/01/15 14:25:10;;;;;;;;;;;22.00;31.30;;;;;;5095719;28;19908;-90
2022/01/15 14:27:36;;;;;;;;;;;21.30;32.20;;;;;;5095533;28;20365;-90
2022/01/15 14:30:03;;;;;;;;;;;21.20;33.00;;;;;;5095628;28;19908;-90
2022/01/15 14:32:29;;;;;;;;;;;21.20;33.20;;;;;;5095504;28;19938;-90
2022/01/15 14:34:55;;;;;;;;;;;21.10;33.50;;;;;;5095516;28;20385;-90
2022/01/15 14:37:22;;;;;;;;;;;20.70;34.10;;;;;;5095451;28;19916;-90
2022/01/15 14:39:48;;;;;;;;;;;20.20;35.10;;;;;;5095401;28;20426;-90
2022/01/15 14:42:13;;;;;;;;;;;20.60;34.50;;;;;;5095398;28;19912;-89
2022/01/15 14:44:39;;;;;;;;;;;20.90;33.70;;;;;;5095613;28;19908;-90
2022/01/15 14:47:05;;;;;;;;;;;20.40;34.50;;;;;;5095260;28;19908;-90
2022/01/15 14:49:31;;;;;;;;;;;20.10;35.20;;;;;;5095244;28;19909;-90
2022/01/15 14:51:56;;;;;;;;;;;19.90;35.50;;;;;;5095231;28;20334;-90
2022/01/15 14:54:22;;;;;;;;;;;19.70;36.00;;;;;;5094882;28;19920;-90
2022/01/15 14:56:47;;;;;;;;;;;19.70;36.10;;;;;;5095030;28;20010;-90
2022/01/15 14:59:13;;;;;;;;;;;19.60;36.10;;;;;;5094986;28;19954;-90
2022/01/15 15:01:39;;;;;;;;;;;19.40;36.60;;;;;;5095011;28;19955;-89
2022/01/15 15:04:06;;;;;;;;;;;19.60;36.40;;;;;;5094949;28;20007;-90
2022/01/15 15:06:32;;;;;;;;;;;19.40;36.70;;;;;;5093587;28;20424;-90
2022/01/15 15:08:58;;;;;;;;;;;18.60;37.90;;;;;;5095072;28;19915;-90
2022/01/15 15:11:26;;;;;;;;;;;18.40;38.10;;;;;;5094769;28;19908;-90
2022/01/15 15:13:52;;;;;;;;;;;18.10;38.80;;;;;;5094636;28;19919;-90
2022/01/15 15:16:18;;;;;;;;;;;17.90;39.40;;;;;;5094044;28;20277;-90
2022/01/15 15:18:44;;;;;;;;;;;17.70;40.20;;;;;;5094316;28;19908;-89
2022/01/15 15:21:10;;;;;;;;;;;17.30;41.00;;;;;;5094857;28;19937;-89
2022/01/15 15:23:36;;;;;;;;;;;16.80;41.70;;;;;;5094493;28;20281;-90
2022/01/15 15:26:02;;;;;;;;;;;16.50;42.50;;;;;;5094734;28;19998;-90
2022/01/15 15:28:28;;;;;;;;;;;16.20;43.50;;;;;;5094680;28;19908;-90
2022/01/15 15:30:54;;;;;;;;;;;16.20;43.30;;;;;;5094417;28;19962;-90
2022/01/15 15:33:20;;;;;;;;;;;16.10;43.10;;;;;;5094586;28;20373;-90
2022/01/15 15:35:46;;;;;;;;;;;15.30;44.80;;;;;;5094317;28;19908;-90
2022/01/15 15:38:11;;;;;;;;;;;14.90;45.90;;;;;;5094234;28;20061;-90
2022/01/15 15:40:37;;;;;;;;;;;14.50;46.60;;;;;;5094217;28;19908;-90
2022/01/15 15:43:03;;;;;;;;;;;14.30;46.70;;;;;;5094164;28;19908;-89
2022/01/15 15:45:28;;;;;;;;;;;14.00;47.20;;;;;;5094198;28;19999;-90
2022/01/15 15:47:54;;;;;;;;;;;13.60;48.20;;;;;;5094088;28;20281;-90
2022/01/15 15:50:19;;;;;;;;;;;12.90;50.20;;;;;;5093986;28;19930;-90
2022/01/15 15:52:45;;;;;;;;;;;12.50;51.90;;;;;;5093727;28;19973;-90
2022/01/15 15:55:11;;;;;;;;;;;12.00;53.10;;;;;;5093964;28;19912;-90
2022/01/15 15:57:39;;;;;;;;;;;11.60;54.00;;;;;;5093896;28;19915;-90
2022/01/15 16:00:06;;;;;;;;;;;11.40;55.40;;;;;;5093795;28;19908;-90
2022/01/15 16:02:32;;;;;;;;;;;11.10;56.00;;;;;;5093772;28;20441;-89
2022/01/15 16:04:58;;;;;;;;;;;10.90;56.70;;;;;;5093627;28;20041;-90
2022/01/15 16:07:27;;;;;;;;;;;10.80;57.60;;;;;;5093734;28;19909;-90
2022/01/15 16:09:56;;;;;;;;;;;10.50;58.50;;;;;;5093655;28;19915;-89
2022/01/15 16:12:22;;;;;;;;;;;10.40;59.30;;;;;;5093595;28;19988;-89
2022/01/15 16:14:48;;;;;;;;;;;10.30;59.50;;;;;;5093552;28;19965;-89
2022/01/15 16:17:13;;;;;;;;;;;10.10;60.20;;;;;;5093609;28;19948;-89
2022/01/15 16:19:39;;;;;;;;;;;9.90;60.90;;;;;;5093539;28;19908;-89
2022/01/15 16:22:05;;;;;;;;;;;9.80;61.20;;;;;;5093521;28;19908;-89